Time;durP1;ratioP1;P1;durP2;ratioP2;P2;SDS_P1;SDS_P2;PMS_P1;PMS_P2;Temp;Humidity;BMP_temperature;BMP_pressure;BME280_temperature;BME280_humidity;BME280_pressure;Samples;Min_cycle;Max_cycle;Signal;HPM_P1;HPM_P2
2022/10/07 00:07:45;;;;;;;12.3;16.8;;;;;;;12.2;86.8;100300;;;;
2022/10/07 00:18:47;;;;;;;12.3;16.8;;;;;;;12;87.1;100280;;;;
2022/10/07 00:28:45;;;;;;;12.3;16.8;;;;;;;11.9;87;100280;;;;
2022/10/07 00:38:45;;;;;;;11.1;16;;;;;;;11.6;87.4;100280;;;;
2022/10/07 00:48:46;;;;;;;11.1;16;;;;;;;11.4;87.7;100260;;;;
2022/10/07 00:59:45;;;;;;;11.9;15.8;;;;;;;11.1;87.7;100260;;;;
2022/10/07 01:09:47;;;;;;;11.9;15.8;;;;;;;11;88;100250;;;;
2022/10/07 01:20:45;;;;;;;11.9;15.8;;;;;;;10.8;88.6;100240;;;;
2022/10/07 01:30:45;;;;;;;12.5;16.1;;;;;;;10.6;88.4;100240;;;;
2022/10/07 01:40:47;;;;;;;12.5;16.1;;;;;;;10.5;88.8;100230;;;;
2022/10/07 01:50:46;;;;;;;12.5;16.1;;;;;;;10.3;88.6;100220;;;;
2022/10/07 02:01:46;;;;;;;11.4;14.1;;;;;;;10.1;88.3;100220;;;;
2022/10/07 02:11:45;;;;;;;11.4;14.1;;;;;;;10;88.4;100220;;;;
2022/10/07 02:22:45;;;;;;;11.4;14.1;;;;;;;9.8;88.3;100210;;;;
2022/10/07 02:33:46;;;;;;;10.9;16.1;;;;;;;9.7;88.6;100210;;;;
2022/10/07 02:44:45;;;;;;;10.9;16.1;;;;;;;9.5;88.4;100200;;;;
2022/10/07 02:54:45;;;;;;;10.9;16.1;;;;;;;9.3;88;100190;;;;
2022/10/07 03:05:48;;;;;;;9.6;15.2;;;;;;;9.1;87.7;100190;;;;
2022/10/07 03:15:45;;;;;;;9.6;15.2;;;;;;;8.9;87.6;100180;;;;
2022/10/07 03:25:46;;;;;;;9.6;15.2;;;;;;;8.8;87.6;100180;;;;
2022/10/07 03:35:45;;;;;;;7.5;11.8;;;;;;;8.7;88.1;100170;;;;
2022/10/07 03:45:46;;;;;;;7.5;11.8;;;;;;;8.6;88.4;100180;;;;
2022/10/07 03:56:45;;;;;;;7.5;11.8;;;;;;;8.5;88.7;100170;;;;
2022/10/07 04:07:46;;;;;;;7.4;11.4;;;;;;;8.4;88.8;100160;;;;
2022/10/07 04:17:45;;;;;;;7.4;11.4;;;;;;;8.4;89.1;100150;;;;
2022/10/07 04:28:47;;;;;;;7.6;12.6;;;;;;;8.3;88.8;100140;;;;
2022/10/07 04:39:45;;;;;;;7.6;12.6;;;;;;;8.2;88.7;100140;;;;
2022/10/07 04:49:45;;;;;;;7.6;12.6;;;;;;;8;88.6;100140;;;;
2022/10/07 04:59:45;;;;;;;7.5;12.4;;;;;;;8.1;88.8;100130;;;;
2022/10/07 05:10:45;;;;;;;7.5;12.4;;;;;;;8.2;89.2;100140;;;;
2022/10/07 05:21:45;;;;;;;7.5;12.4;;;;;;;8.2;89.4;100130;;;;
2022/10/07 05:32:45;;;;;;;7.6;11.3;;;;;;;8.3;89.3;100130;;;;
2022/10/07 05:43:46;;;;;;;7.6;11.3;;;;;;;8.4;89.3;100130;;;;
2022/10/07 05:53:45;;;;;;;7.6;11.3;;;;;;;8.6;89.3;100130;;;;
2022/10/07 06:03:45;;;;;;;8.4;14.9;;;;;;;8.9;89.5;100120;;;;
2022/10/07 06:14:46;;;;;;;8.4;14.9;;;;;;;9.3;89.7;100130;;;;
2022/10/07 06:24:45;;;;;;;8.4;14.9;;;;;;;9.7;90;100130;;;;
2022/10/07 06:34:45;;;;;;;10.7;13;;;;;;;10.2;90.6;100130;;;;
2022/10/07 06:44:46;;;;;;;10.7;13;;;;;;;10.7;91;100120;;;;
2022/10/07 06:54:45;;;;;;;10.7;13;;;;;;;11.2;91.2;100110;;;;
2022/10/07 07:05:45;;;;;;;10;15.5;;;;;;;11.9;90.9;100100;;;;
2022/10/07 07:15:46;;;;;;;10;15.5;;;;;;;12.4;90;100090;;;;
2022/10/07 07:26:46;;;;;;;10;15.5;;;;;;;13;89.1;100080;;;;
2022/10/07 07:36:45;;;;;;;10;20.2;;;;;;;13.5;87.8;100080;;;;
2022/10/07 07:47:48;;;;;;;10;20.2;;;;;;;14.2;86.3;100070;;;;
2022/10/07 07:58:45;;;;;;;8.3;14.9;;;;;;;14.7;84.6;100060;;;;
2022/10/07 08:09:46;;;;;;;8.3;14.9;;;;;;;15.2;82.9;100050;;;;
2022/10/07 08:20:46;;;;;;;8.3;14.9;;;;;;;15.6;82.6;100040;;;;
2022/10/07 08:31:46;;;;;;;10.3;15.6;;;;;;;15.7;81.2;100030;;;;
2022/10/07 08:41:46;;;;;;;10.3;15.6;;;;;;;16.1;80.6;100020;;;;
2022/10/07 08:52:45;;;;;;;10.3;15.6;;;;;;;16.5;79.3;100020;;;;
2022/10/07 09:02:46;;;;;;;11.1;14.4;;;;;;;16.9;78.9;100000;;;;
2022/10/07 09:12:46;;;;;;;11.1;14.4;;;;;;;17.2;77;99990;;;;
2022/10/07 09:23:45;;;;;;;11.1;14.4;;;;;;;17.7;74.1;99980;;;;
2022/10/07 09:34:46;;;;;;;9.1;11.7;;;;;;;18;71.9;99970;;;;
2022/10/07 09:45:46;;;;;;;9.1;11.7;;;;;;;18.4;71.6;99960;;;;
2022/10/07 09:55:48;;;;;;;9.1;11.7;;;;;;;18.9;71.1;99940;;;;
2022/10/07 10:06:46;;;;;;;7.7;11.1;;;;;;;19.1;69.6;99930;;;;
2022/10/07 10:16:45;;;;;;;7.7;11.1;;;;;;;19.2;68.3;99920;;;;
2022/10/07 10:27:46;;;;;;;7.7;11.1;;;;;;;19.4;67.2;99910;;;;
2022/10/07 10:37:45;;;;;;;6.9;9.6;;;;;;;19.7;68.6;99890;;;;
2022/10/07 10:47:46;;;;;;;6.9;9.6;;;;;;;20;66.7;99870;;;;
2022/10/07 10:57:46;;;;;;;6.9;9.6;;;;;;;19.9;64.8;99850;;;;
2022/10/07 11:08:46;;;;;;;7.1;10.3;;;;;;;20.2;66.3;99830;;;;
2022/10/07 11:19:45;;;;;;;7.1;10.3;;;;;;;20.4;65.3;99820;;;;
2022/10/07 11:30:46;;;;;;;6.6;10.9;;;;;;;20.6;64;99790;;;;
2022/10/07 11:41:45;;;;;;;6.6;10.9;;;;;;;20.5;63.7;99780;;;;
2022/10/07 11:51:46;;;;;;;6.6;10.9;;;;;;;20.6;63.7;99760;;;;
2022/10/07 12:01:46;;;;;;;5.6;8.7;;;;;;;20.8;61.4;99740;;;;
2022/10/07 12:11:46;;;;;;;5.6;8.7;;;;;;;21.1;62;99730;;;;
2022/10/07 12:22:45;;;;;;;5.6;8.7;;;;;;;21.2;63;99720;;;;
2022/10/07 12:32:46;;;;;;;6.2;9.7;;;;;;;21.2;62.9;99710;;;;
2022/10/07 12:43:46;;;;;;;6.2;9.7;;;;;;;21.2;62.4;99690;;;;
2022/10/07 12:53:46;;;;;;;6.2;9.7;;;;;;;21.6;62.9;99670;;;;
2022/10/07 13:03:46;;;;;;;5.9;9.5;;;;;;;21.5;61.3;99660;;;;
2022/10/07 13:14:46;;;;;;;5.9;9.5;;;;;;;21.5;60.7;99640;;;;
2022/10/07 13:25:46;;;;;;;5.9;9.5;;;;;;;21.5;61.1;99620;;;;
2022/10/07 13:35:46;;;;;;;5.7;9.6;;;;;;;21.4;62.2;99610;;;;
2022/10/07 13:46:46;;;;;;;5.7;9.6;;;;;;;21.5;61.6;99590;;;;
2022/10/07 13:57:46;;;;;;;5.7;9.6;;;;;;;21.4;62.3;99570;;;;
2022/10/07 14:07:46;;;;;;;6;9.5;;;;;;;21.2;63.4;99560;;;;
2022/10/07 14:18:46;;;;;;;6;9.5;;;;;;;21.1;63.5;99540;;;;
2022/10/07 14:29:46;;;;;;;6.5;9.7;;;;;;;21.1;63.5;99530;;;;
2022/10/07 14:39:46;;;;;;;6.5;9.7;;;;;;;20.8;63.9;99520;;;;
2022/10/07 14:49:46;;;;;;;6.5;9.7;;;;;;;20.6;64.7;99510;;;;
2022/10/07 14:59:48;;;;;;;6.2;11.6;;;;;;;20.4;65.4;99500;;;;
2022/10/07 15:10:46;;;;;;;6.2;11.6;;;;;;;20.1;66.7;99490;;;;
2022/10/07 15:20:46;;;;;;;6.2;11.6;;;;;;;19.9;67.4;99490;;;;
2022/10/07 15:31:46;;;;;;;5.9;9.8;;;;;;;19.4;69.1;99480;;;;
2022/10/07 15:41:47;;;;;;;5.9;9.8;;;;;;;19.1;70.1;99470;;;;
2022/10/07 15:52:46;;;;;;;5.9;9.8;;;;;;;18.8;70.5;99460;;;;
2022/10/07 16:02:46;;;;;;;7;10.8;;;;;;;18.3;71.7;99450;;;;
2022/10/07 16:13:46;;;;;;;7;10.8;;;;;;;17.8;72.5;99450;;;;
2022/10/07 16:23:46;;;;;;;7;10.8;;;;;;;17.3;74.2;99440;;;;
2022/10/07 16:34:46;;;;;;;8;13.3;;;;;;;16.9;75.4;99440;;;;
2022/10/07 16:45:46;;;;;;;8;13.3;;;;;;;16.5;76.2;99440;;;;
2022/10/07 16:56:46;;;;;;;8;13.3;;;;;;;16.1;76.7;99430;;;;
2022/10/07 17:06:46;;;;;;;18.2;23.6;;;;;;;15.8;78.7;99420;;;;
2022/10/07 17:16:46;;;;;;;18.2;23.6;;;;;;;15.7;79.2;99420;;;;
2022/10/07 17:27:46;;;;;;;18.2;23.6;;;;;;;15.5;79.3;99410;;;;
2022/10/07 17:37:47;;;;;;;13.6;17.2;;;;;;;15.3;79.6;99410;;;;
2022/10/07 17:48:46;;;;;;;13.6;17.2;;;;;;;15;79.9;99410;;;;
2022/10/07 17:58:46;;;;;;;18.9;24.2;;;;;;;14.6;80.6;99400;;;;
2022/10/07 18:09:46;;;;;;;18.9;24.2;;;;;;;14.3;80.9;99390;;;;
2022/10/07 18:19:46;;;;;;;18.9;24.2;;;;;;;14;81.6;99380;;;;
2022/10/07 18:30:46;;;;;;;26.6;34.6;;;;;;;13.8;82.3;99380;;;;
2022/10/07 18:41:46;;;;;;;26.6;34.6;;;;;;;13.5;83.7;99380;;;;
2022/10/07 18:52:46;;;;;;;26.6;34.6;;;;;;;13.3;83.7;99380;;;;
2022/10/07 19:02:47;;;;;;;16.3;20.7;;;;;;;13.2;84.9;99370;;;;
2022/10/07 19:13:47;;;;;;;16.3;20.7;;;;;;;13.1;85.4;99370;;;;
2022/10/07 19:23:46;;;;;;;16.3;20.7;;;;;;;13;86.5;99370;;;;
2022/10/07 19:33:48;;;;;;;74.8;111.1;;;;;;;12.9;86.7;99360;;;;
2022/10/07 19:44:47;;;;;;;74.8;111.1;;;;;;;12.7;86.3;99360;;;;
2022/10/07 19:54:48;;;;;;;;;;;;;;;;;;;;;
2022/10/07 20:05:46;;;;;;;;;;;;;;;;;;;;;
2022/10/07 20:16:46;;;;;;;;;;;;;;;;;;;;;
2022/10/07 20:27:47;;;;;;;;;;;;;;;;;;;;;
2022/10/07 20:37:46;;;;;;;;;;;;;;;;;;;;;
2022/10/07 20:47:46;;;;;;;;;;;;;;;;;;;;;
2022/10/07 20:57:46;;;;;;;;;;;;;;;;;;;;;
2022/10/07 21:07:46;;;;;;;;;;;;;;;;;;;;;
2022/10/07 21:18:46;;;;;;;;;;;;;;;;;;;;;
2022/10/07 21:29:46;;;;;;;;;;;;;;;;;;;;;
2022/10/07 21:40:46;;;;;;;;;;;;;;;;;;;;;
2022/10/07 21:50:46;;;;;;;;;;;;;;;;;;;;;
2022/10/07 22:00:46;;;;;;;;;;;;;;;;;;;;;
2022/10/07 22:11:46;;;;;;;;;;;;;;;;;;;;;
2022/10/07 22:22:48;;;;;;;;;;;;;;;;;;;;;
2022/10/07 22:32:46;;;;;;;;;;;;;;;;;;;;;
2022/10/07 22:43:46;;;;;;;;;;;;;;;;;;;;;
2022/10/07 22:54:46;;;;;;;;;;;;;;;;;;;;;
2022/10/07 23:05:49;;;;;;;;;;;;;;;;;;;;;
2022/10/07 23:16:46;;;;;;;;;;;;;;;;;;;;;
2022/10/07 23:27:46;;;;;;;;;;;;;;;;;;;;;
2022/10/07 23:37:46;;;;;;;;;;;;;;;;;;;;;
2022/10/07 23:48:46;;;;;;;;;;;;;;;;;;;;;
2022/10/07 23:59:46;;;;;;;;;;;;;;;;;;;;;
